createdAt,value
2022-08-07T18:55:42.583Z,28.19
2022-08-07T18:59:46.711Z,28.11
2022-08-07T19:03:43.087Z,28.08
2022-08-07T19:07:14.221Z,27.96
2022-08-07T19:10:51.619Z,27.81
2022-08-07T19:14:20.005Z,27.66
2022-08-07T19:18:01.730Z,27.73
2022-08-07T19:21:47.817Z,27.59
2022-08-07T19:26:22.809Z,27.53
2022-08-07T19:31:05.415Z,27.36
2022-08-07T19:32:46.318Z,27.29
2022-08-07T19:36:13.103Z,27.16
2022-08-07T19:39:56.159Z,27.18
2022-08-07T19:43:50.005Z,27.21
2022-08-07T19:47:15.526Z,27.01
2022-08-07T19:50:41.499Z,27.01
2022-08-07T19:54:32.177Z,26.92
2022-08-07T19:58:12.793Z,26.74
2022-08-07T20:01:52.870Z,26.73
2022-08-07T20:05:28.036Z,26.76
2022-08-07T20:08:50.980Z,26.70
2022-08-07T20:12:31.348Z,26.58
2022-08-07T20:15:58.204Z,26.60
2022-08-07T20:19:28.957Z,26.56
2022-08-07T20:23:40.615Z,26.49
2022-08-07T20:27:01.834Z,26.47
2022-08-07T20:30:37.169Z,26.53
2022-08-07T20:34:01.283Z,26.46
2022-08-07T20:37:32.147Z,26.49
2022-08-07T20:41:03.945Z,26.47
2022-08-07T20:44:35.472Z,26.19
2022-08-07T20:48:03.672Z,25.78
2022-08-07T20:51:31.392Z,25.55
2022-08-07T20:54:58.014Z,25.34
2022-08-07T20:58:26.734Z,25.26
2022-08-07T21:01:55.082Z,25.02
2022-08-07T21:05:42.906Z,24.80
2022-08-07T21:09:14.386Z,24.75
2022-08-07T21:12:38.345Z,24.99
2022-08-07T21:16:05.234Z,25.26
2022-08-07T21:19:32.110Z,25.33
2022-08-07T21:23:26.357Z,25.35
2022-08-07T21:27:20.288Z,25.31
2022-08-07T21:30:45.645Z,25.30
2022-08-07T21:34:20.353Z,25.24
2022-08-07T21:37:59.645Z,25.20
2022-08-07T21:41:52.329Z,25.09
2022-08-07T21:46:08.438Z,25.09
2022-08-07T21:49:25.692Z,25.00
2022-08-07T21:52:50.760Z,25.10
2022-08-07T21:56:49.138Z,25.09
2022-08-07T22:00:22.422Z,25.05
2022-08-07T22:03:56.415Z,24.86
2022-08-07T22:07:35.736Z,24.80
2022-08-07T22:11:17.758Z,24.72
2022-08-07T22:14:59.955Z,24.68
2022-08-07T22:18:25.557Z,24.71
2022-08-07T22:22:21.431Z,24.73
2022-08-07T22:26:29.567Z,24.69
2022-08-07T22:29:56.543Z,24.65
2022-08-07T22:33:53.306Z,24.68
2022-08-07T22:38:03.786Z,24.64
2022-08-07T22:41:21.029Z,24.61
2022-08-07T22:44:59.135Z,24.47
2022-08-07T22:48:55.570Z,24.44
2022-08-07T22:52:48.319Z,24.44
2022-08-07T22:56:13.178Z,24.42
2022-08-07T22:59:46.151Z,24.40
2022-08-07T23:03:57.929Z,24.34
2022-08-07T23:08:07.156Z,24.25
2022-08-07T23:11:59.380Z,24.20
2022-08-07T23:16:07.069Z,24.18
2022-08-07T23:20:05.371Z,24.16
2022-08-07T23:24:05.289Z,24.14
2022-08-07T23:28:22.618Z,24.13
2022-08-07T23:34:23.957Z,24.10
2022-08-07T23:36:17.476Z,24.03
2022-08-07T23:40:12.467Z,23.90
2022-08-07T23:43:46.073Z,23.77
2022-08-07T23:47:42.486Z,23.76
2022-08-07T23:52:58.224Z,23.74
2022-08-07T23:55:53.296Z,23.80
